Avery, TX

10:47 AM CDT on April 19, 2015 (GMT -0500)
De Kalb, Texas | | Change Station
CLOSE
Current Station
Personal Weather Station
Location: De Kalb, TX
Elevation: 411 ft
Nearby Weather Stations
Active Advisory: Lake Wind Advisory

Elev 411 ft 33.51 °N, 94.62 °W | Updated 7 minutes ago

Partly Cloudy
Partly Cloudy
69.6 °F
Feels Like 69.6 °F
N
2.0
Wind Variable Wind from SSE
Gusts 2.0 mph

Today
High -- | Low -- °F
--% Chance of Precip.
Yesterday
High -- | Low -- °F
Precip. -- in
6:44 AM 7:52 PM
New Moon, 1% visible
Pressure 29.77 in
Visibility 10.0 miles
Clouds Mostly Cloudy 1700 ft
Mostly Cloudy 2300 ft
Dew Point 62 °F
Humidity 78%
Rainfall 0.07 in
Snow Depth Not available.
UV 4 out of 12
Pollen 10.10 out of 12
Air Quality Not available.
Flu Activity Local Activity
METAR KOSA 191535Z AUTO 15004KT 10SM BKN017 BKN023 20/17 A2977 RMK AO1 T01990165

More Conditions Fewer Conditions

Pressure 29.77 in
Visibility 10.0 miles
Clouds Mostly Cloudy 1700 ft
Mostly Cloudy 2300 ft
Dew Point 62 °F
Humidity 78%
Rainfall 0.07 in
Snow Depth Not available.
UV 4 out of 12
Pollen 10.10 out of 12
Air Quality Not available.
Flu Activity Local Activity
METAR KOSA 191535Z AUTO 15004KT 10SM BKN017 BKN023 20/17 A2977 RMK AO1 T01990165

More Conditions Fewer Conditions

10-Day Weather Forecast

Almanac

Astronomy

Apr. 19, 2015 Rise Set
Actual Time
Civil Twilight
Nautical Twilight
Astronomical Twilight
Moon
Length of Visible Light
Length of Day
Tomorrow will be .
, % of the Moon is Illuminated

Today's Extremes

State Highs State Lows

Community

WunderPhotos

Upload Photos

1,814,838 photos uploaded!

WunderBlogs® & News

Nearby

Air Quality

  Air Quality AQ Index Pollutant
Not available.

Snow Depth

Station Depth Elevation

Earthquake Activity

City Distance Mag. Time & Date
Minimum magnitude displayed is 2.5.

Coastal Water Temperatures

Place Temperature

Stations

Nearby Weather Stations

Station Location Temp. Windchill Dew Point Humidity Wind Precip. Elev Updated Type
                   
Lake Wind Advisory
Statement as of 4:33 AM CDT on April 19, 2015

... Lake Wind Advisory in effect from noon today to 7 PM CDT this
evening...

The National Weather Service in Shreveport has issued a lake Wind
Advisory... which is in effect from noon today to 7 PM CDT this
evening.

* Event... a tightening pressure gradient over eastcentral Texas
this afternoon ahead of the eastward moving dryline will result
in southwest winds increasing to 15 to 20 mph with gusts to 30
mph.

* Timing... between 12 PM and 7 PM this afternoon.

* Impact... rough chop may cause hazardous boating conditions on
area lakes and open waters.

Precautionary/preparedness actions...

A lake Wind Advisory indicates that winds will cause rough chop
on area lakes. Small boats will be especially prone to capsizing.



15